sensor_id;sensor_type;location;lat;lon;timestamp;P1;durP1;ratioP1;P2;durP2;ratioP2
74851;SDS011;63400;50.650;6.832;2023-04-09T00:02:18;20.27;;;11.18;;
74851;SDS011;63400;50.650;6.832;2023-04-09T00:04:43;33.42;;;15.98;;
74851;SDS011;63400;50.650;6.832;2023-04-09T00:07:08;40.28;;;19.48;;
74851;SDS011;63400;50.650;6.832;2023-04-09T00:09:35;28.58;;;14.68;;
74851;SDS011;63400;50.650;6.832;2023-04-09T00:12:01;39.20;;;18.38;;
74851;SDS011;63400;50.650;6.832;2023-04-09T00:14:27;24.65;;;11.85;;
74851;SDS011;63400;50.650;6.832;2023-04-09T00:16:52;22.48;;;11.93;;
74851;SDS011;63400;50.650;6.832;2023-04-09T00:19:18;24.65;;;12.15;;
74851;SDS011;63400;50.650;6.832;2023-04-09T00:21:44;25.50;;;11.88;;
74851;SDS011;63400;50.650;6.832;2023-04-09T00:24:10;24.55;;;12.50;;
74851;SDS011;63400;50.650;6.832;2023-04-09T00:26:35;26.92;;;13.55;;
74851;SDS011;63400;50.650;6.832;2023-04-09T00:29:00;20.77;;;10.38;;
74851;SDS011;63400;50.650;6.832;2023-04-09T00:31:26;24.05;;;12.57;;
74851;SDS011;63400;50.650;6.832;2023-04-09T00:33:51;22.90;;;11.52;;
74851;SDS011;63400;50.650;6.832;2023-04-09T00:36:17;24.45;;;11.98;;
74851;SDS011;63400;50.650;6.832;2023-04-09T00:38:42;26.33;;;13.02;;
74851;SDS011;63400;50.650;6.832;2023-04-09T00:41:08;24.33;;;11.98;;
74851;SDS011;63400;50.650;6.832;2023-04-09T00:43:33;25.40;;;13.20;;
74851;SDS011;63400;50.650;6.832;2023-04-09T00:45:59;21.67;;;12.05;;
74851;SDS011;63400;50.650;6.832;2023-04-09T00:48:24;23.63;;;12.05;;
74851;SDS011;63400;50.650;6.832;2023-04-09T00:50:50;24.02;;;12.45;;
74851;SDS011;63400;50.650;6.832;2023-04-09T00:53:15;26.63;;;13.02;;
74851;SDS011;63400;50.650;6.832;2023-04-09T00:55:41;22.63;;;10.75;;
74851;SDS011;63400;50.650;6.832;2023-04-09T00:58:06;24.77;;;11.25;;
74851;SDS011;63400;50.650;6.832;2023-04-09T01:00:32;22.75;;;11.23;;
74851;SDS011;63400;50.650;6.832;2023-04-09T01:02:57;22.38;;;10.48;;
74851;SDS011;63400;50.650;6.832;2023-04-09T01:05:40;22.80;;;11.75;;
74851;SDS011;63400;50.650;6.832;2023-04-09T01:08:45;23.65;;;11.23;;
74851;SDS011;63400;50.650;6.832;2023-04-09T01:13:54;20.88;;;11.02;;
74851;SDS011;63400;50.650;6.832;2023-04-09T01:16:43;23.08;;;12.07;;
74851;SDS011;63400;50.650;6.832;2023-04-09T01:19:31;23.55;;;11.82;;
74851;SDS011;63400;50.650;6.832;2023-04-09T01:25:02;24.73;;;12.55;;
74851;SDS011;63400;50.650;6.832;2023-04-09T01:27:43;22.45;;;12.07;;
74851;SDS011;63400;50.650;6.832;2023-04-09T01:30:15;26.77;;;12.93;;
74851;SDS011;63400;50.650;6.832;2023-04-09T01:32:42;25.98;;;12.63;;
74851;SDS011;63400;50.650;6.832;2023-04-09T01:35:08;26.73;;;12.48;;
74851;SDS011;63400;50.650;6.832;2023-04-09T01:37:34;25.80;;;13.05;;
74851;SDS011;63400;50.650;6.832;2023-04-09T01:39:59;22.40;;;12.68;;
74851;SDS011;63400;50.650;6.832;2023-04-09T01:42:26;23.45;;;11.80;;
74851;SDS011;63400;50.650;6.832;2023-04-09T01:44:51;22.50;;;12.73;;
74851;SDS011;63400;50.650;6.832;2023-04-09T01:47:20;24.48;;;11.70;;
74851;SDS011;63400;50.650;6.832;2023-04-09T01:49:50;24.63;;;12.90;;
74851;SDS011;63400;50.650;6.832;2023-04-09T01:52:15;23.90;;;11.90;;
74851;SDS011;63400;50.650;6.832;2023-04-09T01:54:41;23.65;;;11.23;;
74851;SDS011;63400;50.650;6.832;2023-04-09T01:57:07;25.85;;;11.80;;
74851;SDS011;63400;50.650;6.832;2023-04-09T01:59:32;24.58;;;12.02;;
74851;SDS011;63400;50.650;6.832;2023-04-09T02:02:02;22.02;;;12.48;;
74851;SDS011;63400;50.650;6.832;2023-04-09T02:04:41;24.27;;;12.35;;
74851;SDS011;63400;50.650;6.832;2023-04-09T02:07:17;23.02;;;12.35;;
74851;SDS011;63400;50.650;6.832;2023-04-09T02:09:43;27.05;;;12.98;;
74851;SDS011;63400;50.650;6.832;2023-04-09T02:12:11;23.27;;;11.80;;
74851;SDS011;63400;50.650;6.832;2023-04-09T02:14:37;23.05;;;12.70;;
74851;SDS011;63400;50.650;6.832;2023-04-09T02:17:02;28.85;;;13.60;;
74851;SDS011;63400;50.650;6.832;2023-04-09T02:19:41;29.65;;;13.60;;
74851;SDS011;63400;50.650;6.832;2023-04-09T02:22:09;25.40;;;12.40;;
74851;SDS011;63400;50.650;6.832;2023-04-09T02:24:35;24.35;;;12.65;;
74851;SDS011;63400;50.650;6.832;2023-04-09T02:27:00;27.13;;;12.80;;
74851;SDS011;63400;50.650;6.832;2023-04-09T02:29:26;27.95;;;12.82;;
74851;SDS011;63400;50.650;6.832;2023-04-09T02:31:52;26.70;;;11.73;;
74851;SDS011;63400;50.650;6.832;2023-04-09T02:34:17;24.30;;;12.30;;
74851;SDS011;63400;50.650;6.832;2023-04-09T02:36:43;22.13;;;12.10;;
74851;SDS011;63400;50.650;6.832;2023-04-09T02:39:08;22.90;;;11.93;;
74851;SDS011;63400;50.650;6.832;2023-04-09T02:41:34;26.27;;;12.77;;
74851;SDS011;63400;50.650;6.832;2023-04-09T02:43:59;25.25;;;11.90;;
74851;SDS011;63400;50.650;6.832;2023-04-09T02:46:25;25.00;;;12.88;;
74851;SDS011;63400;50.650;6.832;2023-04-09T02:48:50;30.08;;;14.32;;
74851;SDS011;63400;50.650;6.832;2023-04-09T02:51:15;27.08;;;12.70;;
74851;SDS011;63400;50.650;6.832;2023-04-09T02:53:41;24.25;;;13.32;;
74851;SDS011;63400;50.650;6.832;2023-04-09T02:56:15;25.42;;;12.75;;
74851;SDS011;63400;50.650;6.832;2023-04-09T02:58:48;24.90;;;13.02;;
74851;SDS011;63400;50.650;6.832;2023-04-09T03:01:17;26.45;;;13.20;;
74851;SDS011;63400;50.650;6.832;2023-04-09T03:03:43;28.90;;;13.93;;
74851;SDS011;63400;50.650;6.832;2023-04-09T03:06:08;27.75;;;13.68;;
74851;SDS011;63400;50.650;6.832;2023-04-09T03:08:33;27.45;;;12.60;;
74851;SDS011;63400;50.650;6.832;2023-04-09T03:10:59;26.02;;;14.38;;
74851;SDS011;63400;50.650;6.832;2023-04-09T03:13:26;25.38;;;12.48;;
74851;SDS011;63400;50.650;6.832;2023-04-09T03:15:51;26.98;;;14.00;;
74851;SDS011;63400;50.650;6.832;2023-04-09T03:18:17;27.05;;;13.68;;
74851;SDS011;63400;50.650;6.832;2023-04-09T03:20:42;21.63;;;11.52;;
74851;SDS011;63400;50.650;6.832;2023-04-09T03:23:09;27.05;;;11.82;;
74851;SDS011;63400;50.650;6.832;2023-04-09T03:25:34;24.55;;;12.63;;
74851;SDS011;63400;50.650;6.832;2023-04-09T03:28:00;26.33;;;12.77;;
74851;SDS011;63400;50.650;6.832;2023-04-09T03:30:25;25.25;;;13.07;;
74851;SDS011;63400;50.650;6.832;2023-04-09T03:32:50;24.02;;;11.10;;
74851;SDS011;63400;50.650;6.832;2023-04-09T03:35:16;23.23;;;11.95;;
74851;SDS011;63400;50.650;6.832;2023-04-09T03:37:41;23.77;;;11.43;;
74851;SDS011;63400;50.650;6.832;2023-04-09T03:40:07;23.30;;;11.40;;
74851;SDS011;63400;50.650;6.832;2023-04-09T03:42:32;22.02;;;12.10;;
74851;SDS011;63400;50.650;6.832;2023-04-09T03:44:59;21.70;;;10.95;;
74851;SDS011;63400;50.650;6.832;2023-04-09T03:47:24;25.45;;;12.70;;
74851;SDS011;63400;50.650;6.832;2023-04-09T03:49:49;24.38;;;11.73;;
74851;SDS011;63400;50.650;6.832;2023-04-09T03:52:15;23.38;;;12.00;;
74851;SDS011;63400;50.650;6.832;2023-04-09T03:54:40;24.48;;;12.27;;
74851;SDS011;63400;50.650;6.832;2023-04-09T03:57:07;22.50;;;12.32;;
74851;SDS011;63400;50.650;6.832;2023-04-09T03:59:32;23.23;;;11.48;;
74851;SDS011;63400;50.650;6.832;2023-04-09T04:01:58;25.75;;;12.05;;
74851;SDS011;63400;50.650;6.832;2023-04-09T04:04:23;22.25;;;10.95;;
74851;SDS011;63400;50.650;6.832;2023-04-09T04:06:49;23.55;;;11.07;;
74851;SDS011;63400;50.650;6.832;2023-04-09T04:09:14;25.13;;;12.13;;
74851;SDS011;63400;50.650;6.832;2023-04-09T04:11:39;19.70;;;10.48;;
74851;SDS011;63400;50.650;6.832;2023-04-09T04:14:05;22.48;;;10.68;;
74851;SDS011;63400;50.650;6.832;2023-04-09T04:16:30;25.90;;;12.43;;
74851;SDS011;63400;50.650;6.832;2023-04-09T04:18:56;22.63;;;11.05;;
74851;SDS011;63400;50.650;6.832;2023-04-09T04:21:21;22.50;;;11.02;;
74851;SDS011;63400;50.650;6.832;2023-04-09T04:23:47;24.83;;;10.98;;
74851;SDS011;63400;50.650;6.832;2023-04-09T04:26:12;24.48;;;11.80;;
74851;SDS011;63400;50.650;6.832;2023-04-09T04:28:38;22.90;;;11.05;;
74851;SDS011;63400;50.650;6.832;2023-04-09T04:31:07;25.10;;;12.05;;
74851;SDS011;63400;50.650;6.832;2023-04-09T04:33:34;24.98;;;11.02;;
74851;SDS011;63400;50.650;6.832;2023-04-09T04:36:04;20.75;;;10.63;;
74851;SDS011;63400;50.650;6.832;2023-04-09T04:38:36;24.17;;;11.07;;
74851;SDS011;63400;50.650;6.832;2023-04-09T04:41:02;23.25;;;10.77;;
74851;SDS011;63400;50.650;6.832;2023-04-09T04:43:32;21.02;;;11.52;;
74851;SDS011;63400;50.650;6.832;2023-04-09T04:45:57;22.45;;;11.77;;
74851;SDS011;63400;50.650;6.832;2023-04-09T04:48:23;25.20;;;12.38;;
74851;SDS011;63400;50.650;6.832;2023-04-09T04:50:55;21.48;;;10.70;;
74851;SDS011;63400;50.650;6.832;2023-04-09T04:53:22;20.92;;;12.20;;
74851;SDS011;63400;50.650;6.832;2023-04-09T04:55:47;22.42;;;11.45;;
74851;SDS011;63400;50.650;6.832;2023-04-09T04:58:13;25.13;;;11.32;;
74851;SDS011;63400;50.650;6.832;2023-04-09T05:00:39;22.80;;;10.13;;
74851;SDS011;63400;50.650;6.832;2023-04-09T05:03:04;27.50;;;12.27;;
74851;SDS011;63400;50.650;6.832;2023-04-09T05:05:30;24.15;;;11.35;;
74851;SDS011;63400;50.650;6.832;2023-04-09T05:07:56;23.85;;;12.27;;
74851;SDS011;63400;50.650;6.832;2023-04-09T05:10:21;25.20;;;12.70;;
74851;SDS011;63400;50.650;6.832;2023-04-09T05:12:46;25.13;;;12.55;;
74851;SDS011;63400;50.650;6.832;2023-04-09T05:15:12;25.80;;;11.18;;
74851;SDS011;63400;50.650;6.832;2023-04-09T05:17:43;24.08;;;12.35;;
74851;SDS011;63400;50.650;6.832;2023-04-09T05:20:09;23.52;;;10.75;;
74851;SDS011;63400;50.650;6.832;2023-04-09T05:22:35;28.60;;;12.13;;
74851;SDS011;63400;50.650;6.832;2023-04-09T05:25:00;27.45;;;13.35;;
74851;SDS011;63400;50.650;6.832;2023-04-09T05:27:26;26.48;;;13.07;;
74851;SDS011;63400;50.650;6.832;2023-04-09T05:29:52;25.83;;;13.15;;
74851;SDS011;63400;50.650;6.832;2023-04-09T05:32:18;27.35;;;12.48;;
74851;SDS011;63400;50.650;6.832;2023-04-09T05:34:44;24.50;;;11.38;;
74851;SDS011;63400;50.650;6.832;2023-04-09T05:37:09;26.98;;;12.80;;
74851;SDS011;63400;50.650;6.832;2023-04-09T05:39:35;24.77;;;12.75;;
74851;SDS011;63400;50.650;6.832;2023-04-09T05:42:00;23.27;;;12.20;;
74851;SDS011;63400;50.650;6.832;2023-04-09T05:44:26;27.00;;;13.50;;
74851;SDS011;63400;50.650;6.832;2023-04-09T05:46:51;27.02;;;12.95;;
74851;SDS011;63400;50.650;6.832;2023-04-09T05:49:16;24.75;;;12.32;;
74851;SDS011;63400;50.650;6.832;2023-04-09T05:51:42;30.83;;;13.02;;
74851;SDS011;63400;50.650;6.832;2023-04-09T05:54:08;25.65;;;11.73;;
74851;SDS011;63400;50.650;6.832;2023-04-09T05:56:33;25.08;;;11.85;;
74851;SDS011;63400;50.650;6.832;2023-04-09T05:58:59;28.23;;;13.43;;
74851;SDS011;63400;50.650;6.832;2023-04-09T06:01:24;27.83;;;12.43;;
74851;SDS011;63400;50.650;6.832;2023-04-09T06:03:50;25.75;;;11.25;;
74851;SDS011;63400;50.650;6.832;2023-04-09T06:06:15;26.38;;;12.85;;
74851;SDS011;63400;50.650;6.832;2023-04-09T06:08:41;23.63;;;11.57;;
74851;SDS011;63400;50.650;6.832;2023-04-09T06:11:09;25.85;;;12.50;;
74851;SDS011;63400;50.650;6.832;2023-04-09T06:13:36;27.38;;;12.80;;
74851;SDS011;63400;50.650;6.832;2023-04-09T06:16:05;33.83;;;15.32;;
74851;SDS011;63400;50.650;6.832;2023-04-09T06:18:31;37.42;;;17.80;;
74851;SDS011;63400;50.650;6.832;2023-04-09T06:21:15;41.20;;;19.40;;
74851;SDS011;63400;50.650;6.832;2023-04-09T06:23:40;38.92;;;17.77;;
74851;SDS011;63400;50.650;6.832;2023-04-09T06:26:06;29.23;;;14.23;;
74851;SDS011;63400;50.650;6.832;2023-04-09T06:28:31;34.05;;;16.00;;
74851;SDS011;63400;50.650;6.832;2023-04-09T06:30:57;40.80;;;19.75;;
74851;SDS011;63400;50.650;6.832;2023-04-09T06:33:23;29.73;;;14.48;;
74851;SDS011;63400;50.650;6.832;2023-04-09T06:35:48;25.02;;;13.57;;
74851;SDS011;63400;50.650;6.832;2023-04-09T06:38:16;22.73;;;12.10;;
74851;SDS011;63400;50.650;6.832;2023-04-09T06:40:42;24.73;;;11.75;;
74851;SDS011;63400;50.650;6.832;2023-04-09T06:43:08;24.60;;;12.45;;
74851;SDS011;63400;50.650;6.832;2023-04-09T06:45:33;21.38;;;10.43;;
74851;SDS011;63400;50.650;6.832;2023-04-09T06:47:59;22.35;;;12.20;;
74851;SDS011;63400;50.650;6.832;2023-04-09T06:50:24;19.60;;;10.95;;
74851;SDS011;63400;50.650;6.832;2023-04-09T06:52:50;20.23;;;11.20;;
74851;SDS011;63400;50.650;6.832;2023-04-09T06:55:16;19.90;;;10.52;;
74851;SDS011;63400;50.650;6.832;2023-04-09T06:57:42;17.80;;;10.27;;
74851;SDS011;63400;50.650;6.832;2023-04-09T07:00:07;19.40;;;11.75;;
74851;SDS011;63400;50.650;6.832;2023-04-09T07:02:33;18.98;;;10.93;;
74851;SDS011;63400;50.650;6.832;2023-04-09T07:04:59;20.35;;;10.38;;
74851;SDS011;63400;50.650;6.832;2023-04-09T07:07:25;18.52;;;10.70;;
74851;SDS011;63400;50.650;6.832;2023-04-09T07:09:51;17.42;;;9.88;;
74851;SDS011;63400;50.650;6.832;2023-04-09T07:12:27;17.05;;;10.25;;
74851;SDS011;63400;50.650;6.832;2023-04-09T07:14:56;16.05;;;9.38;;
74851;SDS011;63400;50.650;6.832;2023-04-09T07:17:22;17.73;;;9.95;;
74851;SDS011;63400;50.650;6.832;2023-04-09T07:19:47;16.60;;;10.50;;
74851;SDS011;63400;50.650;6.832;2023-04-09T07:22:13;17.75;;;9.30;;
74851;SDS011;63400;50.650;6.832;2023-04-09T07:24:38;13.85;;;8.55;;
74851;SDS011;63400;50.650;6.832;2023-04-09T07:27:04;16.70;;;8.75;;
74851;SDS011;63400;50.650;6.832;2023-04-09T07:29:30;13.63;;;8.60;;
74851;SDS011;63400;50.650;6.832;2023-04-09T07:31:56;13.27;;;8.27;;
74851;SDS011;63400;50.650;6.832;2023-04-09T07:34:21;13.45;;;8.93;;
74851;SDS011;63400;50.650;6.832;2023-04-09T07:36:47;13.00;;;8.50;;
74851;SDS011;63400;50.650;6.832;2023-04-09T07:39:12;15.10;;;8.55;;
74851;SDS011;63400;50.650;6.832;2023-04-09T07:41:37;16.10;;;8.55;;
74851;SDS011;63400;50.650;6.832;2023-04-09T07:44:03;12.73;;;7.93;;
74851;SDS011;63400;50.650;6.832;2023-04-09T07:46:30;14.00;;;8.60;;
74851;SDS011;63400;50.650;6.832;2023-04-09T07:48:55;14.40;;;8.57;;
74851;SDS011;63400;50.650;6.832;2023-04-09T07:51:20;13.77;;;8.43;;
74851;SDS011;63400;50.650;6.832;2023-04-09T07:53:46;12.57;;;7.88;;
74851;SDS011;63400;50.650;6.832;2023-04-09T07:56:12;11.63;;;6.80;;
74851;SDS011;63400;50.650;6.832;2023-04-09T07:58:37;13.27;;;6.88;;
74851;SDS011;63400;50.650;6.832;2023-04-09T08:01:03;12.88;;;7.05;;
74851;SDS011;63400;50.650;6.832;2023-04-09T08:03:28;11.52;;;6.97;;
74851;SDS011;63400;50.650;6.832;2023-04-09T08:05:54;10.05;;;5.60;;
74851;SDS011;63400;50.650;6.832;2023-04-09T08:08:19;5.90;;;3.22;;
74851;SDS011;63400;50.650;6.832;2023-04-09T08:10:45;4.80;;;1.95;;
74851;SDS011;63400;50.650;6.832;2023-04-09T08:13:11;3.97;;;1.98;;
74851;SDS011;63400;50.650;6.832;2023-04-09T08:15:37;4.32;;;2.00;;
74851;SDS011;63400;50.650;6.832;2023-04-09T08:18:02;4.25;;;2.17;;
74851;SDS011;63400;50.650;6.832;2023-04-09T08:20:28;4.10;;;1.92;;
74851;SDS011;63400;50.650;6.832;2023-04-09T08:22:54;4.25;;;2.72;;
74851;SDS011;63400;50.650;6.832;2023-04-09T08:25:20;3.75;;;1.83;;
74851;SDS011;63400;50.650;6.832;2023-04-09T08:27:46;3.60;;;1.83;;
74851;SDS011;63400;50.650;6.832;2023-04-09T08:30:11;3.58;;;1.98;;
74851;SDS011;63400;50.650;6.832;2023-04-09T08:32:37;4.57;;;1.90;;
74851;SDS011;63400;50.650;6.832;2023-04-09T08:35:02;5.28;;;1.88;;
74851;SDS011;63400;50.650;6.832;2023-04-09T08:37:28;4.15;;;1.98;;
74851;SDS011;63400;50.650;6.832;2023-04-09T08:39:54;3.75;;;2.08;;
74851;SDS011;63400;50.650;6.832;2023-04-09T08:42:20;3.90;;;1.77;;
74851;SDS011;63400;50.650;6.832;2023-04-09T08:44:46;4.20;;;1.75;;
74851;SDS011;63400;50.650;6.832;2023-04-09T08:47:11;3.80;;;2.08;;
74851;SDS011;63400;50.650;6.832;2023-04-09T08:49:38;4.60;;;2.30;;
74851;SDS011;63400;50.650;6.832;2023-04-09T08:52:04;3.92;;;2.30;;
74851;SDS011;63400;50.650;6.832;2023-04-09T08:54:30;4.00;;;2.47;;
74851;SDS011;63400;50.650;6.832;2023-04-09T08:56:56;3.85;;;2.33;;
74851;SDS011;63400;50.650;6.832;2023-04-09T08:59:21;4.72;;;2.30;;
74851;SDS011;63400;50.650;6.832;2023-04-09T09:01:46;4.97;;;2.45;;
74851;SDS011;63400;50.650;6.832;2023-04-09T09:04:17;5.25;;;3.00;;
74851;SDS011;63400;50.650;6.832;2023-04-09T09:06:43;5.70;;;3.13;;
74851;SDS011;63400;50.650;6.832;2023-04-09T09:09:13;5.47;;;2.97;;
74851;SDS011;63400;50.650;6.832;2023-04-09T09:11:41;4.30;;;2.30;;
74851;SDS011;63400;50.650;6.832;2023-04-09T09:14:08;4.60;;;2.50;;
74851;SDS011;63400;50.650;6.832;2023-04-09T09:16:35;6.78;;;3.08;;
74851;SDS011;63400;50.650;6.832;2023-04-09T09:19:04;6.38;;;3.67;;
74851;SDS011;63400;50.650;6.832;2023-04-09T09:21:30;6.40;;;3.85;;
74851;SDS011;63400;50.650;6.832;2023-04-09T09:23:56;5.82;;;3.85;;
74851;SDS011;63400;50.650;6.832;2023-04-09T09:26:30;6.43;;;3.53;;
74851;SDS011;63400;50.650;6.832;2023-04-09T09:28:56;6.88;;;3.90;;
74851;SDS011;63400;50.650;6.832;2023-04-09T09:31:25;7.93;;;3.67;;
74851;SDS011;63400;50.650;6.832;2023-04-09T09:33:50;6.57;;;3.35;;
74851;SDS011;63400;50.650;6.832;2023-04-09T09:36:29;7.25;;;3.28;;
74851;SDS011;63400;50.650;6.832;2023-04-09T09:38:56;6.38;;;3.58;;
74851;SDS011;63400;50.650;6.832;2023-04-09T09:41:23;7.18;;;3.85;;
74851;SDS011;63400;50.650;6.832;2023-04-09T09:43:49;6.93;;;4.15;;
74851;SDS011;63400;50.650;6.832;2023-04-09T09:46:14;6.32;;;3.25;;
74851;SDS011;63400;50.650;6.832;2023-04-09T09:48:41;5.90;;;3.85;;
74851;SDS011;63400;50.650;6.832;2023-04-09T09:51:10;5.57;;;3.30;;
74851;SDS011;63400;50.650;6.832;2023-04-09T09:53:36;6.55;;;4.07;;
74851;SDS011;63400;50.650;6.832;2023-04-09T09:56:03;6.75;;;4.03;;
74851;SDS011;63400;50.650;6.832;2023-04-09T09:58:36;7.10;;;4.22;;
74851;SDS011;63400;50.650;6.832;2023-04-09T10:01:08;6.55;;;3.55;;
74851;SDS011;63400;50.650;6.832;2023-04-09T10:03:36;6.78;;;3.83;;
74851;SDS011;63400;50.650;6.832;2023-04-09T10:06:03;6.63;;;4.40;;
74851;SDS011;63400;50.650;6.832;2023-04-09T10:08:29;6.50;;;3.70;;
74851;SDS011;63400;50.650;6.832;2023-04-09T10:10:57;6.32;;;4.18;;
74851;SDS011;63400;50.650;6.832;2023-04-09T10:13:32;5.57;;;3.55;;
74851;SDS011;63400;50.650;6.832;2023-04-09T10:15:59;6.32;;;4.25;;
74851;SDS011;63400;50.650;6.832;2023-04-09T10:18:25;6.20;;;3.65;;
74851;SDS011;63400;50.650;6.832;2023-04-09T10:20:58;6.32;;;3.60;;
74851;SDS011;63400;50.650;6.832;2023-04-09T10:25:56;8.52;;;4.60;;
74851;SDS011;63400;50.650;6.832;2023-04-09T10:28:21;7.65;;;4.55;;
74851;SDS011;63400;50.650;6.832;2023-04-09T10:30:47;7.50;;;4.03;;
74851;SDS011;63400;50.650;6.832;2023-04-09T10:33:16;10.02;;;4.32;;
74851;SDS011;63400;50.650;6.832;2023-04-09T10:35:50;7.22;;;4.20;;
74851;SDS011;63400;50.650;6.832;2023-04-09T10:38:16;8.45;;;4.55;;
74851;SDS011;63400;50.650;6.832;2023-04-09T10:40:45;7.47;;;4.28;;
74851;SDS011;63400;50.650;6.832;2023-04-09T10:43:11;7.70;;;4.45;;
74851;SDS011;63400;50.650;6.832;2023-04-09T10:45:38;8.90;;;4.15;;
74851;SDS011;63400;50.650;6.832;2023-04-09T10:48:05;9.43;;;4.82;;
74851;SDS011;63400;50.650;6.832;2023-04-09T10:50:36;7.35;;;3.80;;
74851;SDS011;63400;50.650;6.832;2023-04-09T10:53:02;9.35;;;4.10;;
74851;SDS011;63400;50.650;6.832;2023-04-09T10:55:38;7.35;;;3.60;;
74851;SDS011;63400;50.650;6.832;2023-04-09T10:58:05;7.28;;;3.47;;
74851;SDS011;63400;50.650;6.832;2023-04-09T11:00:38;6.85;;;3.50;;
74851;SDS011;63400;50.650;6.832;2023-04-09T11:03:09;8.15;;;3.95;;
74851;SDS011;63400;50.650;6.832;2023-04-09T11:05:43;5.78;;;3.15;;
74851;SDS011;63400;50.650;6.832;2023-04-09T11:08:13;6.15;;;2.92;;
74851;SDS011;63400;50.650;6.832;2023-04-09T11:10:39;6.90;;;3.17;;
74851;SDS011;63400;50.650;6.832;2023-04-09T11:13:09;6.18;;;3.55;;
74851;SDS011;63400;50.650;6.832;2023-04-09T11:15:35;5.70;;;3.00;;
74851;SDS011;63400;50.650;6.832;2023-04-09T11:18:01;7.38;;;3.38;;
74851;SDS011;63400;50.650;6.832;2023-04-09T11:20:27;6.22;;;3.00;;
74851;SDS011;63400;50.650;6.832;2023-04-09T11:22:55;5.10;;;3.25;;
74851;SDS011;63400;50.650;6.832;2023-04-09T11:25:21;4.05;;;2.15;;
74851;SDS011;63400;50.650;6.832;2023-04-09T11:27:50;5.63;;;2.05;;
74851;SDS011;63400;50.650;6.832;2023-04-09T11:30:16;4.13;;;2.13;;
74851;SDS011;63400;50.650;6.832;2023-04-09T11:32:41;4.13;;;2.33;;
74851;SDS011;63400;50.650;6.832;2023-04-09T11:35:14;5.53;;;2.13;;
74851;SDS011;63400;50.650;6.832;2023-04-09T11:37:40;4.20;;;1.92;;
74851;SDS011;63400;50.650;6.832;2023-04-09T11:40:07;5.68;;;2.65;;
74851;SDS011;63400;50.650;6.832;2023-04-09T11:42:45;5.85;;;3.13;;
74851;SDS011;63400;50.650;6.832;2023-04-09T11:45:13;5.18;;;2.25;;
74851;SDS011;63400;50.650;6.832;2023-04-09T11:47:39;5.85;;;2.60;;
74851;SDS011;63400;50.650;6.832;2023-04-09T11:50:06;4.05;;;2.03;;
74851;SDS011;63400;50.650;6.832;2023-04-09T11:52:32;4.63;;;2.33;;
74851;SDS011;63400;50.650;6.832;2023-04-09T11:55:00;5.50;;;2.33;;
74851;SDS011;63400;50.650;6.832;2023-04-09T11:57:37;4.05;;;1.70;;
74851;SDS011;63400;50.650;6.832;2023-04-09T12:00:07;3.35;;;1.50;;
74851;SDS011;63400;50.650;6.832;2023-04-09T12:05:22;13.23;;;1.50;;
74851;SDS011;63400;50.650;6.832;2023-04-09T12:07:49;3.75;;;1.52;;
74851;SDS011;63400;50.650;6.832;2023-04-09T12:10:15;6.47;;;2.70;;
74851;SDS011;63400;50.650;6.832;2023-04-09T12:12:44;6.32;;;3.00;;
74851;SDS011;63400;50.650;6.832;2023-04-09T12:15:17;5.15;;;2.20;;
74851;SDS011;63400;50.650;6.832;2023-04-09T12:17:52;3.55;;;1.95;;
74851;SDS011;63400;50.650;6.832;2023-04-09T12:20:28;3.63;;;1.90;;
74851;SDS011;63400;50.650;6.832;2023-04-09T12:22:58;4.05;;;1.85;;
74851;SDS011;63400;50.650;6.832;2023-04-09T12:25:25;6.07;;;2.55;;
74851;SDS011;63400;50.650;6.832;2023-04-09T12:27:51;5.50;;;2.75;;
74851;SDS011;63400;50.650;6.832;2023-04-09T12:30:18;4.15;;;1.98;;
74851;SDS011;63400;50.650;6.832;2023-04-09T12:32:43;4.55;;;2.28;;
74851;SDS011;63400;50.650;6.832;2023-04-09T12:35:10;3.90;;;1.88;;
74851;SDS011;63400;50.650;6.832;2023-04-09T12:37:35;4.43;;;1.92;;
74851;SDS011;63400;50.650;6.832;2023-04-09T12:40:01;4.85;;;2.40;;
74851;SDS011;63400;50.650;6.832;2023-04-09T12:42:27;5.13;;;2.22;;
74851;SDS011;63400;50.650;6.832;2023-04-09T12:44:53;5.75;;;2.50;;
74851;SDS011;63400;50.650;6.832;2023-04-09T12:47:18;4.78;;;1.95;;
74851;SDS011;63400;50.650;6.832;2023-04-09T12:49:43;4.13;;;1.52;;
74851;SDS011;63400;50.650;6.832;2023-04-09T12:52:10;4.70;;;2.10;;
74851;SDS011;63400;50.650;6.832;2023-04-09T12:54:36;4.82;;;2.30;;
74851;SDS011;63400;50.650;6.832;2023-04-09T12:57:03;5.30;;;2.17;;
74851;SDS011;63400;50.650;6.832;2023-04-09T12:59:28;3.58;;;1.48;;
74851;SDS011;63400;50.650;6.832;2023-04-09T13:01:53;5.22;;;2.03;;
74851;SDS011;63400;50.650;6.832;2023-04-09T13:04:19;5.95;;;1.50;;
74851;SDS011;63400;50.650;6.832;2023-04-09T13:06:44;5.38;;;2.17;;
74851;SDS011;63400;50.650;6.832;2023-04-09T13:09:10;4.68;;;2.30;;
74851;SDS011;63400;50.650;6.832;2023-04-09T13:11:35;5.45;;;2.80;;
74851;SDS011;63400;50.650;6.832;2023-04-09T13:14:00;4.07;;;1.70;;
74851;SDS011;63400;50.650;6.832;2023-04-09T13:16:26;4.55;;;2.25;;
74851;SDS011;63400;50.650;6.832;2023-04-09T13:18:52;3.92;;;1.75;;
74851;SDS011;63400;50.650;6.832;2023-04-09T13:21:17;4.05;;;1.65;;
74851;SDS011;63400;50.650;6.832;2023-04-09T13:23:43;4.63;;;1.55;;
74851;SDS011;63400;50.650;6.832;2023-04-09T13:26:09;3.95;;;2.03;;
74851;SDS011;63400;50.650;6.832;2023-04-09T13:28:34;4.15;;;1.63;;
74851;SDS011;63400;50.650;6.832;2023-04-09T13:31:00;4.15;;;1.33;;
74851;SDS011;63400;50.650;6.832;2023-04-09T13:33:26;4.80;;;1.85;;
74851;SDS011;63400;50.650;6.832;2023-04-09T13:35:52;5.70;;;2.05;;
74851;SDS011;63400;50.650;6.832;2023-04-09T13:38:17;4.78;;;1.50;;
74851;SDS011;63400;50.650;6.832;2023-04-09T13:40:43;3.92;;;2.03;;
74851;SDS011;63400;50.650;6.832;2023-04-09T13:43:08;5.68;;;2.97;;
74851;SDS011;63400;50.650;6.832;2023-04-09T13:45:34;3.92;;;1.67;;
74851;SDS011;63400;50.650;6.832;2023-04-09T13:47:59;5.50;;;2.65;;
74851;SDS011;63400;50.650;6.832;2023-04-09T13:50:25;4.88;;;1.80;;
74851;SDS011;63400;50.650;6.832;2023-04-09T13:52:50;4.63;;;2.05;;
74851;SDS011;63400;50.650;6.832;2023-04-09T13:55:15;4.20;;;1.55;;
74851;SDS011;63400;50.650;6.832;2023-04-09T13:57:41;4.65;;;1.90;;
74851;SDS011;63400;50.650;6.832;2023-04-09T14:00:06;4.57;;;1.88;;
74851;SDS011;63400;50.650;6.832;2023-04-09T14:02:32;4.15;;;1.83;;
74851;SDS011;63400;50.650;6.832;2023-04-09T14:04:58;2.63;;;1.23;;
74851;SDS011;63400;50.650;6.832;2023-04-09T14:07:23;3.72;;;1.55;;
74851;SDS011;63400;50.650;6.832;2023-04-09T14:09:49;3.15;;;1.50;;
74851;SDS011;63400;50.650;6.832;2023-04-09T14:12:15;3.90;;;1.80;;
74851;SDS011;63400;50.650;6.832;2023-04-09T14:14:42;3.50;;;1.63;;
74851;SDS011;63400;50.650;6.832;2023-04-09T14:17:10;4.07;;;1.88;;
74851;SDS011;63400;50.650;6.832;2023-04-09T14:19:36;5.00;;;1.75;;
74851;SDS011;63400;50.650;6.832;2023-04-09T14:22:01;4.32;;;1.73;;
74851;SDS011;63400;50.650;6.832;2023-04-09T14:24:27;3.88;;;1.50;;
74851;SDS011;63400;50.650;6.832;2023-04-09T14:26:52;3.72;;;2.15;;
74851;SDS011;63400;50.650;6.832;2023-04-09T14:29:18;4.65;;;1.85;;
74851;SDS011;63400;50.650;6.832;2023-04-09T14:31:43;4.00;;;1.63;;
74851;SDS011;63400;50.650;6.832;2023-04-09T14:36:36;4.85;;;2.40;;
74851;SDS011;63400;50.650;6.832;2023-04-09T14:39:01;5.95;;;2.10;;
74851;SDS011;63400;50.650;6.832;2023-04-09T14:41:27;4.65;;;2.17;;
74851;SDS011;63400;50.650;6.832;2023-04-09T14:43:52;4.63;;;2.58;;
74851;SDS011;63400;50.650;6.832;2023-04-09T14:46:17;4.20;;;1.70;;